Terminal Aerodrome Forecast
Issued by NWS

Home | Current Version | Previous Version | Text Only | Print | Product List | Glossary On
Versions: 1 2 3 4 5 6 7 8 9 10 11 12 13 14 15 16 17 18 19 20 21 22 23 24 25 26 27 28
000
FTUS41 KBUF 291400 AAA
TAFJHW
TAF AMD
KJHW 291423Z 2914/3012 20008KT P6SM SKC
     FM291800 20012KT P6SM SCT200
     FM300000 16009KT P6SM BKN150
     FM300200 19013G21KT 2SM -SN OVC050
     FM300500 19015G23KT 4SM -SHSN OVC025
     FM300900 23017G27KT 4SM -SHSN OVC008
      AMD LTD TO CLD VIS AND WIND=

USA.gov is the U.S. government's official web portal to all federal, state and local government web resources and services.